Ocoee 1 Observed Data For Previous 48 Hours

Caption
Day and Hour Reservoir Elevation (behind dam)* Tailwater Elevation (below dam)* Average Hourly Discharge*
6/20/2018 2 AM EDT 828.08 713.14 10
6/20/2018 3 AM EDT 828.12 713.09 0
6/20/2018 4 AM EDT 828.17 713.27 7
6/20/2018 5 AM EDT 828.19 714.11 592
6/20/2018 6 AM EDT 828.24 713.11 0
6/20/2018 7 AM EDT 828.28 713.09 0
6/20/2018 8 AM EDT 828.33 713.34 10
6/20/2018 9 AM EDT 828.34 714.11 592
6/20/2018 10 AM EDT 828.38 713.11 0
6/20/2018 11 AM EDT 828.42 713.59 23
6/20/2018 12 PM EDT 828.42 715.98 1,317
6/20/2018 1 PM EDT 828.38 716.93 1,993
6/20/2018 2 PM EDT 828.35 717.00 2,006
6/20/2018 3 PM EDT 828.30 716.94 2,003
6/20/2018 4 PM EDT 828.25 716.94 2,003
6/20/2018 5 PM EDT 828.24 716.91 1,998
6/20/2018 6 PM EDT 828.21 716.94 2,011
6/20/2018 7 PM EDT 828.11 716.94 2,006
6/20/2018 8 PM EDT 828.15 716.95 2,006
6/20/2018 9 PM EDT 828.13 716.96 2,009
6/20/2018 10 PM EDT 828.11 716.94 2,011
6/20/2018 11 PM EDT 828.09 716.94 2,008
6/21/2018 12 AM EDT 828.07 716.95 2,016
6/21/2018 1 AM EDT 828.03 716.95 2,014
6/21/2018 2 AM EDT 828.07 713.15 14
6/21/2018 3 AM EDT 828.11 713.09 0
6/21/2018 4 AM EDT 828.12 713.31 9
6/21/2018 5 AM EDT 828.10 714.22 602
6/21/2018 6 AM EDT 828.11 713.10 0
6/21/2018 7 AM EDT 828.11 713.08 0
6/21/2018 8 AM EDT 828.16 713.15 0
6/21/2018 9 AM EDT 828.19 714.21 600
6/21/2018 10 AM EDT 828.23 713.10 0
6/21/2018 11 AM EDT 828.26 713.08 0
6/21/2018 12 PM EDT 828.30 713.64 26
6/21/2018 1 PM EDT 828.31 715.96 1,331
6/21/2018 2 PM EDT 828.31 716.01 1,331
6/21/2018 3 PM EDT 828.27 716.97 2,010
6/21/2018 4 PM EDT 828.24 716.98 2,029
6/21/2018 5 PM EDT 828.21 716.97 2,027
6/21/2018 6 PM EDT 828.22 714.15 1,507
6/21/2018 7 PM EDT 828.20 716.71 1,313
6/21/2018 8 PM EDT 828.17 716.97 2,022
6/21/2018 9 PM EDT 828.13 716.99 2,032
6/21/2018 10 PM EDT 828.08 716.98 2,028
6/21/2018 11 PM EDT 828.05 716.97 2,027
6/22/2018 12 AM EDT 828.04 715.97 1,341
6/22/2018 1 AM EDT 828.03 715.97 1,332

Elevations are in feet above sea level. Discharges are in cubic feet per second and are reported at the end of the hour.